Ilicinea, Brazil
Current Conditions -  °F | °C
As of 5:00 PM on Thursday 30 Oct 2014 (Local Time) from SBYS Reporting Station
Few Clouds Few Clouds  
Wind Chill: 95°   Ceiling: Unl
Heat Index: 95°   Visibility: 6mi
Dew Point: 48°   Wind: 6mph
Humidity: 20%   Direction: 280°W
Pressure: 29.77"   Gusts: NA
Location:  20.94°S, 45.83°W
Report Text: SBYS 301900Z 28005KT 9999 FEW045 35/09 Q1008
Loading
Personal Weather Stations






























Interactive Weather Map
Tropical Storm Tracking
New forecast layout! Learn more

10-Day Weather Forecast

Advertisements
Track Severe Weather on mobile